Terminal Aerodrome Forecast
Issued by NWS

Home | Current Version | Previous Version | Text Only | Print | Product List | Glossary On
Versions: 1 2 3 4 5 6 7 8 9 10 11 12 13 14 15 16 17 18 19 20 21 22 23
000
FTUS43 KDVN 261700
TAFCID
TAF
KCID 261721Z 2618/2718 22008KT P6SM BKN200
     FM262200 VRB04KT P6SM BKN035 OVC150
     FM270400 02007KT 6SM -DZ BR OVC010
     FM270600 03007KT 4SM -RA BR OVC008
     FM271300 29012KT 5SM BR OVC012=

USA.gov is the U.S. government's official web portal to all federal, state and local government web resources and services.